Time;durP1;ratioP1;P1;durP2;ratioP2;P2;SDS_P1;SDS_P2;PMS_P1;PMS_P2;Temp;Humidity;BMP_temperature;BMP_pressure;BME280_temperature;BME280_humidity;BME280_pressure;Samples;Min_cycle;Max_cycle;Signal;HPM_P1;HPM_P2
2023/05/25 00:02:17;;;;;;;;;;;9.90;99.90;;;;;;5096927;28;20100;-71
2023/05/25 00:04:47;;;;;;;12.55;3.97;;;9.90;99.90;;;;;;5146206;27;19985;-70
2023/05/25 00:07:14;;;;;;;13.13;4.63;;;9.80;99.90;;;;;;5112143;28;20055;-70
2023/05/25 00:09:43;;;;;;;13.70;4.20;;;9.80;99.90;;;;;;5111921;28;20055;-71
2023/05/25 00:12:09;;;;;;;13.27;4.68;;;9.80;99.90;;;;;;5112412;28;20048;-71
2023/05/25 00:14:35;;;;;;;;;;;9.70;99.90;;;;;;5094887;28;20079;-70
2023/05/25 00:17:02;;;;;;;12.20;4.10;;;9.70;99.90;;;;;;5113857;28;20078;-71
2023/05/25 00:19:31;;;;;;;10.93;4.55;;;9.60;99.90;;;;;;5145159;27;20047;-70
2023/05/25 00:22:01;;;;;;;18.05;4.57;;;9.60;99.90;;;;;;5110687;28;20054;-71
2023/05/25 00:24:31;;;;;;;14.50;5.10;;;9.50;99.90;;;;;;5113039;28;20052;-70
2023/05/25 00:26:57;;;;;;;13.40;4.20;;;9.50;99.90;;;;;;5113014;28;20104;-71
2023/05/25 00:29:23;;;;;;;16.55;4.70;;;9.50;99.90;;;;;;5111345;28;20043;-70
2023/05/25 00:31:49;;;;;;;13.88;4.70;;;9.50;99.90;;;;;;5111467;28;20047;-71
2023/05/25 00:34:15;;;;;;;12.52;4.97;;;9.50;99.90;;;;;;5112243;28;20532;-70
2023/05/25 00:36:47;;;;;;;15.55;4.63;;;9.50;99.90;;;;;;5111748;28;20112;-70
2023/05/25 00:39:14;;;;;;;13.52;4.72;;;9.50;99.90;;;;;;5113562;28;20056;-71
2023/05/25 00:41:43;;;;;;;9.32;4.15;;;9.50;99.90;;;;;;5110185;27;20225;-70
2023/05/25 00:44:09;;;;;;;12.93;4.50;;;9.40;99.90;;;;;;5097396;28;20087;-70
2023/05/25 00:46:36;;;;;;;14.70;4.45;;;9.40;99.90;;;;;;5093381;28;20047;-71
2023/05/25 00:49:03;;;;;;;16.20;4.40;;;9.40;99.90;;;;;;5106731;28;20079;-71
2023/05/25 00:51:35;;;;;;;13.05;4.88;;;9.40;99.90;;;;;;5112422;28;20085;-71
2023/05/25 00:54:01;;;;;;;14.88;5.10;;;9.40;99.90;;;;;;5112730;28;20047;-71
2023/05/25 00:56:31;;;;;;;14.38;4.68;;;9.40;99.90;;;;;;5117094;27;20114;-71
2023/05/25 00:59:02;;;;;;;12.85;4.78;;;9.30;99.90;;;;;;5119556;27;20047;-71
2023/05/25 01:01:32;;;;;;;10.05;4.38;;;9.30;99.90;;;;;;5111501;28;20031;-71
2023/05/25 01:04:00;;;;;;;10.70;4.70;;;9.30;99.90;;;;;;5112580;27;20146;-71
2023/05/25 01:06:29;;;;;;;14.25;4.75;;;9.30;99.90;;;;;;5109892;28;20044;-71
2023/05/25 01:09:01;;;;;;;11.60;4.68;;;9.20;99.90;;;;;;5094581;28;20469;-71
2023/05/25 01:11:33;;;;;;;16.90;4.43;;;9.20;99.90;;;;;;5111280;28;20477;-71
2023/05/25 01:14:00;;;;;;;15.65;4.70;;;9.20;99.90;;;;;;5094400;28;20481;-71
2023/05/25 01:16:26;;;;;;;12.85;5.10;;;9.20;99.90;;;;;;5101932;28;20070;-71
2023/05/25 01:18:52;;;;;;;11.00;4.57;;;9.20;99.90;;;;;;5098257;28;20540;-71
2023/05/25 01:21:27;;;;;;;10.00;4.10;;;9.10;99.90;;;;;;5112341;28;20053;-71
2023/05/25 01:24:02;;;;;;;14.90;5.15;;;9.10;99.90;;;;;;5102200;28;20119;-71
2023/05/25 01:26:33;;;;;;;12.57;4.85;;;9.10;99.90;;;;;;5102957;28;20062;-71
2023/05/25 01:29:01;;;;;;;15.93;5.10;;;9.10;99.90;;;;;;5112551;28;20059;-71
2023/05/25 01:31:27;;;;;;;16.13;4.90;;;9.10;99.90;;;;;;5141042;27;20085;-71
2023/05/25 01:33:53;;;;;;;20.10;4.80;;;9.00;99.90;;;;;;5095918;28;20056;-71
2023/05/25 01:36:19;;;;;;;;;;;9.00;99.90;;;;;;5099227;28;20077;-71
2023/05/25 01:38:45;;;;;;;11.02;4.30;;;9.00;99.90;;;;;;5097551;28;19947;-71
2023/05/25 01:41:11;;;;;;;12.63;4.35;;;9.00;99.90;;;;;;5121951;27;20509;-71
2023/05/25 01:43:37;;;;;;;15.30;5.22;;;8.90;99.90;;;;;;5104410;28;20047;-71
2023/05/25 01:46:20;;;;;;;11.20;4.35;;;8.90;99.90;;;;;;5110025;28;20082;-71
2023/05/25 01:49:01;;;;;;;18.75;4.93;;;8.90;99.90;;;;;;5109960;28;20055;-71
2023/05/25 01:51:46;;;;;;;13.20;5.00;;;8.80;99.90;;;;;;5111729;28;20050;-71
2023/05/25 01:54:19;;;;;;;14.63;5.13;;;8.90;99.90;;;;;;5104649;28;20078;-71
2023/05/25 01:56:47;;;;;;;17.30;5.40;;;8.80;99.90;;;;;;5103065;28;20101;-71
2023/05/25 01:59:15;;;;;;;12.35;4.80;;;8.80;99.90;;;;;;5106555;28;20048;-71
2023/05/25 02:01:41;;;;;;;12.48;5.03;;;8.80;99.90;;;;;;5110098;28;20122;-70
2023/05/25 02:04:07;;;;;;;;;;;8.80;99.90;;;;;;5111730;28;20039;-71
2023/05/25 02:06:35;;;;;;;15.02;5.07;;;8.80;99.90;;;;;;5110679;28;19972;-71
2023/05/25 02:09:01;;;;;;;16.58;5.18;;;8.80;99.90;;;;;;5111783;28;20048;-71
2023/05/25 02:11:26;;;;;;;15.75;5.03;;;8.70;99.90;;;;;;5111336;28;20556;-71
2023/05/25 02:13:52;;;;;;;14.50;5.07;;;8.70;99.90;;;;;;5144397;27;20051;-71
2023/05/25 02:16:18;;;;;;;12.25;4.90;;;8.70;99.90;;;;;;5110868;28;20043;-71
2023/05/25 02:18:44;;;;;;;13.82;4.72;;;8.70;99.90;;;;;;5142542;27;20043;-71
2023/05/25 02:21:10;;;;;;;10.07;4.75;;;8.70;99.90;;;;;;5110373;28;20048;-71
2023/05/25 02:23:36;;;;;;;13.48;4.20;;;8.60;99.90;;;;;;5095443;28;20051;-71
2023/05/25 02:26:02;;;;;;;23.88;4.15;;;8.60;99.90;;;;;;5104884;28;20504;-71
2023/05/25 02:28:27;;;;;;;8.98;3.53;;;8.50;99.90;;;;;;5111522;28;20412;-70
2023/05/25 02:30:53;;;;;;;7.72;3.40;;;8.40;99.90;;;;;;5108916;28;20567;-71
2023/05/25 02:33:19;;;;;;;11.52;4.28;;;8.30;99.90;;;;;;5102702;28;20130;-71
2023/05/25 02:35:45;;;;;;;11.07;4.60;;;8.30;99.90;;;;;;5090329;28;20050;-71
2023/05/25 02:38:11;;;;;;;9.65;4.30;;;8.20;99.90;;;;;;5090964;28;20488;-71
2023/05/25 02:40:37;;;;;;;13.45;5.90;;;8.30;99.90;;;;;;5089542;28;20040;-71
2023/05/25 02:43:02;;;;;;;14.65;4.80;;;8.20;99.90;;;;;;5095255;28;20520;-71
2023/05/25 02:45:28;;;;;;;16.08;5.30;;;8.20;99.90;;;;;;5141050;27;20047;-71
2023/05/25 02:47:54;;;;;;;13.50;5.03;;;8.30;99.90;;;;;;5089051;28;20052;-71
2023/05/25 02:50:20;;;;;;;14.00;5.30;;;8.30;99.90;;;;;;5090882;28;20083;-71
2023/05/25 02:52:46;;;;;;;15.02;5.38;;;8.30;99.90;;;;;;5093230;28;20056;-71
2023/05/25 02:55:17;;;;;;;18.35;5.95;;;8.40;99.90;;;;;;5090757;28;20127;-70
2023/05/25 02:57:43;;;;;;;16.23;5.53;;;8.40;99.90;;;;;;5089226;28;20074;-71
2023/05/25 03:00:12;;;;;;;14.65;5.28;;;8.40;99.90;;;;;;5089971;28;20044;-70
2023/05/25 03:02:38;;;;;;;13.77;5.07;;;8.40;99.90;;;;;;5091284;28;20040;-71
2023/05/25 03:05:05;;;;;;;15.90;6.35;;;8.40;99.90;;;;;;5110384;28;20060;-71
2023/05/25 03:07:30;;;;;;;19.65;5.97;;;8.40;99.90;;;;;;5098957;28;20054;-70
2023/05/25 03:09:56;;;;;;;14.63;5.72;;;8.40;99.90;;;;;;5108989;28;20039;-71
2023/05/25 03:12:22;;;;;;;17.52;6.28;;;8.40;99.90;;;;;;5111072;28;20073;-71
2023/05/25 03:14:48;;;;;;;18.60;6.40;;;8.50;99.90;;;;;;5108396;28;20048;-70
2023/05/25 03:17:13;;;;;;;16.30;5.53;;;8.50;99.90;;;;;;5110567;28;20101;-71
2023/05/25 03:19:40;;;;;;;15.43;6.00;;;8.50;99.90;;;;;;5109342;28;20086;-71
2023/05/25 03:22:05;;;;;;;15.00;5.10;;;8.50;99.90;;;;;;5101898;28;20048;-71
2023/05/25 03:24:31;;;;;;;14.20;5.25;;;8.50;99.90;;;;;;5123549;28;20265;-71
2023/05/25 03:26:57;;;;;;;13.23;5.00;;;8.50;99.90;;;;;;5123149;28;20097;-70
2023/05/25 03:29:22;;;;;;;9.80;4.38;;;8.50;99.90;;;;;;5088454;28;20078;-71
2023/05/25 03:31:48;;;;;;;12.07;4.13;;;8.40;99.90;;;;;;5090070;28;20040;-71
2023/05/25 03:34:14;;;;;;;60.80;5.43;;;8.40;99.90;;;;;;5102315;28;20569;-71
2023/05/25 03:36:44;;;;;;;12.93;4.07;;;8.30;99.90;;;;;;5109912;28;20044;-71
2023/05/25 03:39:10;;;;;;;29.52;4.47;;;8.10;99.90;;;;;;5108917;28;20135;-70
2023/05/25 03:41:36;;;;;;;47.17;5.00;;;8.00;99.90;;;;;;5105354;28;20056;-70
2023/05/25 03:44:02;;;;;;;20.58;2.50;;;7.90;99.90;;;;;;5103314;28;20040;-71
2023/05/25 03:46:27;;;;;;;6.80;1.77;;;7.80;99.90;;;;;;5109895;28;20439;-71
2023/05/25 03:48:53;;;;;;;12.73;2.90;;;7.80;99.90;;;;;;5108270;28;20050;-71
2023/05/25 03:51:19;;;;;;;19.27;2.97;;;7.70;99.90;;;;;;5108846;28;20043;-70
2023/05/25 03:53:45;;;;;;;5.82;2.10;;;7.70;99.90;;;;;;5110066;28;20048;-71
2023/05/25 03:56:10;;;;;;;5.70;2.50;;;7.70;99.90;;;;;;5110565;28;20054;-70
2023/05/25 03:58:36;;;;;;;10.07;2.72;;;7.60;99.90;;;;;;5108684;28;20075;-70
2023/05/25 04:01:02;;;;;;;7.18;3.10;;;7.60;99.90;;;;;;5109187;28;20055;-70
2023/05/25 04:03:28;;;;;;;;;;;7.70;99.90;;;;;;5139601;27;20084;-70
2023/05/25 04:05:54;;;;;;;16.40;4.85;;;7.70;99.90;;;;;;5089372;28;19989;-71
2023/05/25 04:08:21;;;;;;;13.30;5.32;;;7.80;99.90;;;;;;5088711;28;20127;-71
2023/05/25 04:10:47;;;;;;;17.88;5.78;;;7.80;99.90;;;;;;5104041;28;20438;-71
2023/05/25 04:13:13;;;;;;;18.88;5.30;;;7.90;99.90;;;;;;5114225;28;20096;-71
2023/05/25 04:15:38;;;;;;;15.43;5.50;;;8.00;99.90;;;;;;5112181;28;20051;-71
2023/05/25 04:18:04;;;;;;;17.70;6.22;;;8.10;99.90;;;;;;5111902;28;20636;-71
2023/05/25 04:20:30;;;;;;;20.08;6.47;;;8.10;99.90;;;;;;5113354;28;20104;-71
2023/05/25 04:22:56;;;;;;;12.43;6.00;;;8.20;99.90;;;;;;5111030;28;20050;-70
2023/05/25 04:25:22;;;;;;;;;;;8.20;99.90;;;;;;5113178;28;20100;-71
2023/05/25 04:27:47;;;;;;;19.90;6.00;;;8.30;99.90;;;;;;5101456;28;19920;-71
2023/05/25 04:30:14;;;;;;;15.15;6.13;;;8.30;99.90;;;;;;5092730;28;20059;-70
2023/05/25 04:32:40;;;;;;;17.35;6.25;;;8.40;99.90;;;;;;5097754;28;20066;-70
2023/05/25 04:35:06;;;;;;;15.82;6.57;;;8.40;99.90;;;;;;5091598;28;20040;-70
2023/05/25 04:37:32;;;;;;;;;;;8.50;99.90;;;;;;5093458;28;20060;-71
2023/05/25 04:39:58;;;;;;;19.55;6.53;;;8.60;99.90;;;;;;5092562;28;19969;-71
2023/05/25 04:42:24;;;;;;;16.00;6.25;;;8.60;99.90;;;;;;5109120;28;20055;-71
2023/05/25 04:44:54;;;;;;;;;;;8.70;99.90;;;;;;5104924;28;20048;-71
2023/05/25 04:47:20;;;;;;;20.58;7.13;;;8.70;99.90;;;;;;5092046;28;19945;-71
2023/05/25 04:49:46;;;;;;;;;;;8.70;99.90;;;;;;5131691;27;20100;-71
2023/05/25 04:52:12;;;;;;;16.73;7.13;;;8.80;99.90;;;;;;5112257;28;19924;-70
2023/05/25 04:54:38;;;;;;;16.38;6.95;;;8.80;99.90;;;;;;5111961;28;20051;-71
2023/05/25 04:57:03;;;;;;;18.52;6.32;;;8.80;99.90;;;;;;5113061;27;20039;-71
2023/05/25 04:59:29;;;;;;;17.60;6.88;;;8.90;99.90;;;;;;5112001;28;20044;-71
2023/05/25 05:01:55;;;;;;;20.88;8.32;;;8.90;99.90;;;;;;5102566;28;20047;-71
2023/05/25 05:04:21;;;;;;;20.65;8.05;;;9.00;99.90;;;;;;5127104;27;20073;-71
2023/05/25 05:06:46;;;;;;;20.23;7.20;;;9.00;99.90;;;;;;5105243;28;20098;-70
2023/05/25 05:09:12;;;;;;;20.38;8.55;;;9.10;99.90;;;;;;5112404;28;20774;-70
2023/05/25 05:11:38;;;;;;;23.55;7.95;;;9.10;99.90;;;;;;5113058;28;20040;-71
2023/05/25 05:14:04;;;;;;;22.77;8.02;;;9.20;99.90;;;;;;5112615;28;20051;-71
2023/05/25 05:16:33;;;;;;;20.90;7.93;;;9.30;99.90;;;;;;5112041;28;20143;-71
2023/05/25 05:19:02;;;;;;;22.58;8.25;;;9.30;99.90;;;;;;5110363;28;20043;-71
2023/05/25 05:21:28;;;;;;;20.33;7.65;;;9.40;99.90;;;;;;5140650;27;20040;-70
2023/05/25 05:23:54;;;;;;;21.10;8.82;;;9.50;99.90;;;;;;5108264;28;20519;-71
2023/05/25 05:26:21;;;;;;;19.52;8.32;;;9.50;99.90;;;;;;5093700;28;20447;-71
2023/05/25 05:28:47;;;;;;;23.42;8.07;;;9.50;99.90;;;;;;5103698;28;20496;-71
2023/05/25 05:31:16;;;;;;;23.17;8.50;;;9.60;99.90;;;;;;5111199;28;20115;-71
2023/05/25 05:33:42;;;;;;;22.17;7.95;;;9.70;99.90;;;;;;5111311;28;20044;-71
2023/05/25 05:36:08;;;;;;;22.65;7.82;;;9.80;99.90;;;;;;5111583;28;20051;-71
2023/05/25 05:38:34;;;;;;;24.52;8.25;;;9.90;99.90;;;;;;5111989;28;20449;-71
2023/05/25 05:41:01;;;;;;;22.60;8.35;;;9.90;99.90;;;;;;5100518;28;20051;-71
2023/05/25 05:43:27;;;;;;;20.33;8.40;;;10.00;99.90;;;;;;5091640;28;20520;-71
2023/05/25 05:45:52;;;;;;;24.08;8.80;;;10.10;99.90;;;;;;5097460;28;20047;-71
2023/05/25 05:48:18;;;;;;;22.38;8.02;;;10.10;99.90;;;;;;5112533;27;20040;-71
2023/05/25 05:50:44;;;;;;;29.67;8.77;;;10.20;99.90;;;;;;5090630;28;20676;-71
2023/05/25 05:53:09;;;;;;;24.20;7.95;;;10.30;99.90;;;;;;5090133;28;20043;-71
2023/05/25 05:55:35;;;;;;;18.58;8.07;;;10.30;99.90;;;;;;5124820;27;20044;-71
2023/05/25 05:58:01;;;;;;;21.13;8.45;;;10.40;99.90;;;;;;5091113;28;20048;-71
2023/05/25 06:00:27;;;;;;;20.73;8.27;;;10.50;99.90;;;;;;5072946;28;20050;-71
2023/05/25 06:02:52;;;;;;;23.63;7.95;;;10.60;99.90;;;;;;5090171;28;20500;-71
2023/05/25 06:05:19;;;;;;;21.95;8.73;;;10.60;99.90;;;;;;5091812;28;20113;-71
2023/05/25 06:07:45;;;;;;;19.88;8.30;;;10.70;99.90;;;;;;5104400;28;20063;-71
2023/05/25 06:10:11;;;;;;;16.58;7.72;;;10.80;99.90;;;;;;5109965;28;20450;-71
2023/05/25 06:12:37;;;;;;;23.42;8.40;;;10.90;99.90;;;;;;5108551;28;20051;-71
2023/05/25 06:15:03;;;;;;;25.10;8.93;;;10.90;99.90;;;;;;5122915;27;20039;-71
2023/05/25 06:17:29;;;;;;;20.70;7.60;;;11.00;99.90;;;;;;5089666;28;20056;-71
2023/05/25 06:19:55;;;;;;;21.17;7.63;;;11.10;99.90;;;;;;5091448;28;20101;-71
2023/05/25 06:22:22;;;;;;;17.48;7.95;;;11.20;99.90;;;;;;5118077;27;20079;-71
2023/05/25 06:24:48;;;;;;;22.73;7.55;;;11.30;99.90;;;;;;5110459;28;20054;-70
2023/05/25 06:27:16;;;;;;;21.15;6.30;;;11.30;99.90;;;;;;5111219;28;20126;-71
2023/05/25 06:29:42;;;;;;;18.15;6.72;;;11.50;99.90;;;;;;5108909;28;20059;-71
2023/05/25 06:32:09;;;;;;;14.65;5.25;;;11.60;99.90;;;;;;5111004;28;20036;-71
2023/05/25 06:34:35;;;;;;;12.60;4.57;;;11.60;99.90;;;;;;5103106;28;20043;-71
2023/05/25 06:37:01;;;;;;;15.30;4.40;;;11.70;99.90;;;;;;5091740;28;20520;-71
2023/05/25 06:39:27;;;;;;;14.60;4.22;;;11.80;99.90;;;;;;5108796;28;20071;-71
2023/05/25 06:41:52;;;;;;;18.58;4.50;;;11.90;99.90;;;;;;5111234;28;20039;-71
2023/05/25 06:44:18;;;;;;;14.35;3.70;;;12.10;99.90;;;;;;5109480;28;20047;-71
2023/05/25 06:46:44;;;;;;;16.67;4.45;;;12.20;99.90;;;;;;5110543;28;20058;-71
2023/05/25 06:49:10;;;;;;;15.23;4.60;;;12.40;99.90;;;;;;5110238;28;20043;-71
2023/05/25 06:51:36;;;;;;;20.13;5.63;;;12.50;99.90;;;;;;5110109;28;20055;-68
2023/05/25 06:54:02;;;;;;;;;;;12.60;99.90;;;;;;5098087;28;20464;-69
2023/05/25 06:56:28;;;;;;;12.40;3.65;;;12.70;99.90;;;;;;5123355;27;19920;-69
2023/05/25 06:58:53;;;;;;;17.33;4.25;;;12.80;99.90;;;;;;5089805;28;20046;-72
2023/05/25 07:01:19;;;;;;;16.50;4.55;;;12.90;99.90;;;;;;5133572;27;20397;-72
2023/05/25 07:03:45;;;;;;;15.13;4.75;;;13.00;99.90;;;;;;5110719;28;20140;-73
2023/05/25 07:06:11;;;;;;;13.43;3.78;;;13.10;99.90;;;;;;5125367;28;20078;-72
2023/05/25 07:08:37;;;;;;;17.50;3.83;;;13.20;99.90;;;;;;5110096;28;20052;-72
2023/05/25 07:11:03;;;;;;;16.65;4.75;;;13.30;99.90;;;;;;5109962;28;20078;-72
2023/05/25 07:13:29;;;;;;;16.60;4.15;;;13.30;99.90;;;;;;5107748;28;20049;-72
2023/05/25 07:15:55;;;;;;;16.38;4.10;;;13.30;99.90;;;;;;5097699;28;20059;-73
2023/05/25 07:18:20;;;;;;;14.60;4.18;;;13.30;99.90;;;;;;5102034;28;20075;-72
2023/05/25 07:20:47;;;;;;;12.43;3.63;;;13.30;99.90;;;;;;5104127;28;20051;-72
2023/05/25 07:23:12;;;;;;;;;;;13.30;99.90;;;;;;5093319;28;20066;-72
2023/05/25 07:25:38;;;;;;;12.73;4.18;;;13.30;99.90;;;;;;5090442;28;19924;-72
2023/05/25 07:28:05;;;;;;;15.05;3.67;;;13.40;99.90;;;;;;5095037;28;20062;-72
2023/05/25 07:30:30;;;;;;;;;;;13.40;99.90;;;;;;5143256;27;20435;-72
2023/05/25 07:32:57;;;;;;;13.40;3.65;;;13.50;99.90;;;;;;5109036;28;19923;-72
2023/05/25 07:35:23;;;;;;;14.70;4.03;;;13.60;99.90;;;;;;5107362;28;20064;-72
2023/05/25 07:38:00;;;;;;;15.57;3.67;;;13.60;99.90;;;;;;5098806;28;20047;-72
2023/05/25 07:40:26;;;;;;;10.57;3.03;;;13.60;99.90;;;;;;5110127;28;20048;-72
2023/05/25 07:42:52;;;;;;;18.17;3.53;;;13.70;99.90;;;;;;5110816;28;20106;-72
2023/05/25 07:45:18;;;;;;;15.02;3.40;;;13.80;99.90;;;;;;5109284;28;20052;-72
2023/05/25 07:47:44;;;;;;;12.98;3.67;;;13.90;99.90;;;;;;5113178;28;20101;-73
2023/05/25 07:50:10;;;;;;;13.43;2.95;;;14.10;99.90;;;;;;5114255;28;20051;-70
2023/05/25 07:52:37;;;;;;;19.13;4.22;;;14.20;99.90;;;;;;5112848;28;20105;-70
2023/05/25 07:55:05;;;;;;;13.63;3.45;;;14.30;99.90;;;;;;5112999;28;20131;-69
2023/05/25 07:57:30;;;;;;;12.23;3.20;;;14.60;99.90;;;;;;5112690;28;20051;-70
2023/05/25 07:59:56;;;;;;;14.68;3.70;;;14.70;99.90;;;;;;5102585;28;20050;-72
2023/05/25 08:02:22;;;;;;;12.65;3.58;;;14.80;99.90;;;;;;5105823;28;20080;-71
2023/05/25 08:04:47;;;;;;;13.82;3.35;;;14.80;99.90;;;;;;5092261;28;20101;-72
2023/05/25 08:07:13;;;;;;;11.77;3.70;;;15.00;99.90;;;;;;5091949;28;20078;-72
2023/05/25 08:09:39;;;;;;;13.05;3.42;;;15.10;99.90;;;;;;5092640;28;20044;-72
2023/05/25 08:12:04;;;;;;;14.38;3.45;;;15.20;99.90;;;;;;5097782;27;20036;-72
2023/05/25 08:14:30;;;;;;;11.82;2.95;;;15.30;99.90;;;;;;5112075;27;20543;-72
2023/05/25 08:16:56;;;;;;;13.10;3.25;;;15.30;99.90;;;;;;5097871;28;20055;-72
2023/05/25 08:19:21;;;;;;;14.95;3.97;;;15.40;99.90;;;;;;5109610;28;20119;-72
2023/05/25 08:21:47;;;;;;;11.20;3.20;;;15.50;99.90;;;;;;5146205;27;20055;-72
2023/05/25 08:24:13;;;;;;;14.10;3.10;;;15.60;99.90;;;;;;5145757;27;20092;-72
2023/05/25 08:26:40;;;;;;;13.80;3.65;;;15.60;99.90;;;;;;5113389;28;20085;-73
2023/05/25 08:29:06;;;;;;;10.40;3.20;;;15.70;99.90;;;;;;5107094;28;20753;-73
2023/05/25 08:31:32;;;;;;;13.75;3.38;;;15.80;99.90;;;;;;5091298;28;20651;-73
2023/05/25 08:33:59;;;;;;;9.55;2.83;;;15.90;99.90;;;;;;5096971;28;20071;-72
2023/05/25 08:36:26;;;;;;;18.90;3.50;;;15.90;99.90;;;;;;5104792;28;20115;-73
2023/05/25 08:38:52;;;;;;;12.98;2.58;;;15.90;99.90;;;;;;5113266;28;20086;-72
2023/05/25 08:41:20;;;;;;;11.85;3.50;;;15.90;99.90;;;;;;5101284;28;20071;-72
2023/05/25 08:43:45;;;;;;;12.93;3.60;;;15.90;99.90;;;;;;5095009;28;20051;-72
2023/05/25 08:46:12;;;;;;;16.27;3.90;;;15.90;99.90;;;;;;5137264;27;20392;-72
2023/05/25 08:48:37;;;;;;;15.45;3.72;;;15.80;99.90;;;;;;5111810;28;20550;-72
2023/05/25 08:51:08;;;;;;;14.05;3.42;;;15.80;99.90;;;;;;5146079;27;20036;-72
2023/05/25 08:53:36;;;;;;;17.10;3.80;;;15.70;99.90;;;;;;5111578;28;20587;-73
2023/05/25 08:56:17;;;;;;;15.95;3.63;;;15.60;99.90;;;;;;5112668;28;20073;-74
2023/05/25 08:59:08;;;;;;;13.05;3.60;;;15.60;99.90;;;;;;5112002;28;20055;-74
2023/05/25 09:01:41;;;;;;;18.33;3.90;;;15.60;99.90;;;;;;5102296;28;20146;-74
2023/05/25 09:04:07;;;;;;;17.33;4.13;;;15.70;99.90;;;;;;5105265;28;20044;-74
2023/05/25 09:06:35;;;;;;;;;;;15.80;99.90;;;;;;5106954;28;20059;-74
2023/05/25 09:09:04;;;;;;;15.88;3.53;;;15.90;99.90;;;;;;5095225;28;19920;-75
2023/05/25 09:11:31;;;;;;;19.30;4.28;;;16.00;99.90;;;;;;5105961;28;20051;-75
2023/05/25 09:13:57;;;;;;;18.05;3.85;;;16.10;99.90;;;;;;5098289;28;20503;-74
2023/05/25 09:16:25;;;;;;;15.93;3.83;;;16.10;99.90;;;;;;5103228;28;20404;-74
2023/05/25 09:18:51;;;;;;;19.55;4.00;;;16.20;99.90;;;;;;5112260;28;20040;-75
2023/05/25 09:21:16;;;;;;;18.95;3.80;;;16.20;99.90;;;;;;5110491;28;20049;-74
2023/05/25 09:23:42;;;;;;;;;;;16.30;99.90;;;;;;5109335;28;20044;-74
2023/05/25 09:26:08;;;;;;;17.27;3.90;;;16.30;99.90;;;;;;5112033;28;19920;-75
2023/05/25 09:28:34;;;;;;;16.42;3.67;;;16.40;99.90;;;;;;5111816;28;20047;-75
2023/05/25 09:31:00;;;;;;;17.33;4.15;;;16.50;99.90;;;;;;5092716;28;20079;-75
2023/05/25 09:33:25;;;;;;;;;;;16.60;99.90;;;;;;5110158;28;20050;-75
2023/05/25 09:35:51;;;;;;;16.42;3.75;;;16.70;99.90;;;;;;5111963;28;19923;-75
2023/05/25 09:38:17;;;;;;;;;;;16.70;99.90;;;;;;5094604;28;20100;-74
2023/05/25 09:40:43;;;;;;;21.08;3.63;;;16.60;99.90;;;;;;5110340;28;20473;-72
2023/05/25 09:43:11;;;;;;;18.23;3.78;;;16.60;99.90;;;;;;5112106;28;20035;-74
2023/05/25 09:45:37;;;;;;;21.13;4.05;;;16.60;99.90;;;;;;5106805;28;20162;-75
2023/05/25 09:48:05;;;;;;;19.23;3.72;;;16.70;99.90;;;;;;5111416;28;20119;-75
2023/05/25 09:50:31;;;;;;;17.33;3.45;;;16.70;99.90;;;;;;5111002;27;20044;-75
2023/05/25 09:52:58;;;;;;;17.90;4.07;;;16.70;99.90;;;;;;5111948;28;20043;-75
2023/05/25 09:55:27;;;;;;;15.93;4.38;;;16.70;99.90;;;;;;5109923;28;20500;-74
2023/05/25 09:57:53;;;;;;;21.73;4.22;;;16.80;99.90;;;;;;5110686;28;20047;-74
2023/05/25 10:00:21;;;;;;;21.42;4.07;;;16.90;99.90;;;;;;5108322;28;20104;-73
2023/05/25 10:02:47;;;;;;;17.58;3.65;;;16.90;99.90;;;;;;5107386;28;20106;-73
2023/05/25 10:05:12;;;;;;;24.13;4.60;;;17.00;99.90;;;;;;5111152;28;20131;-74
2023/05/25 10:07:40;;;;;;;27.02;5.45;;;17.00;99.90;;;;;;5109003;28;20097;-74
2023/05/25 10:10:09;;;;;;;20.55;5.32;;;17.10;99.90;;;;;;5109665;28;20058;-74
2023/05/25 10:12:35;;;;;;;15.57;3.65;;;17.00;99.90;;;;;;5109346;28;20409;-74
2023/05/25 10:15:06;;;;;;;24.85;4.60;;;17.10;99.90;;;;;;5107303;28;20035;-74
2023/05/25 10:17:34;;;;;;;27.33;4.90;;;17.20;99.90;;;;;;5107103;28;20059;-74
2023/05/25 10:20:04;;;;;;;24.38;3.97;;;17.30;99.90;;;;;;5111619;28;20044;-74
2023/05/25 10:22:45;;;;;;;18.13;4.15;;;17.50;99.90;;;;;;5109535;28;20455;-73
2023/05/25 10:25:14;;;;;;;21.10;4.43;;;17.70;99.90;;;;;;5108603;28;20052;-73
2023/05/25 10:27:43;;;;;;;20.48;4.35;;;17.90;99.90;;;;;;5110785;28;20195;-73
2023/05/25 10:30:10;;;;;;;15.30;3.80;;;18.00;99.90;;;;;;5104533;28;20465;-73
2023/05/25 10:32:38;;;;;;;18.85;4.25;;;18.10;99.90;;;;;;5109818;28;20477;-73
2023/05/25 10:35:06;;;;;;;18.90;4.45;;;18.20;99.70;;;;;;5111434;28;20039;-74
2023/05/25 10:37:33;;;;;;;20.38;4.03;;;18.20;98.20;;;;;;5105731;28;20043;-74
2023/05/25 10:40:00;;;;;;;16.92;4.50;;;18.10;98.40;;;;;;5111263;28;20519;-74
2023/05/25 10:42:28;;;;;;;19.40;3.72;;;18.10;98.90;;;;;;5108046;28;20560;-74
2023/05/25 10:44:55;;;;;;;19.27;4.55;;;18.10;98.40;;;;;;5118372;27;20039;-74
2023/05/25 10:47:22;;;;;;;21.23;4.57;;;18.20;97.20;;;;;;5109368;28;20039;-74
2023/05/25 10:49:52;;;;;;;19.40;3.92;;;18.10;97.30;;;;;;5110215;28;20625;-74
2023/05/25 10:52:19;;;;;;;20.52;4.25;;;18.20;97.30;;;;;;5097383;28;20039;-74
2023/05/25 10:54:46;;;;;;;20.08;4.47;;;18.30;97.70;;;;;;5098598;28;20101;-74
2023/05/25 10:57:18;;;;;;;18.85;3.92;;;18.50;97.50;;;;;;5089918;28;20059;-74
2023/05/25 10:59:50;;;;;;;21.05;4.47;;;18.60;95.10;;;;;;5088261;28;20048;-74
2023/05/25 11:02:21;;;;;;;25.88;4.75;;;18.70;94.30;;;;;;5096693;28;20047;-74
2023/05/25 11:04:48;;;;;;;22.50;4.78;;;18.70;93.80;;;;;;5109916;28;20079;-73
2023/05/25 11:07:17;;;;;;;20.13;4.20;;;18.80;93.30;;;;;;5110189;27;20058;-73
2023/05/25 11:09:55;;;;;;;17.95;4.28;;;18.90;92.60;;;;;;5109249;28;20048;-73
2023/05/25 11:12:21;;;;;;;20.15;4.03;;;19.00;92.00;;;;;;5110422;28;20104;-73
2023/05/25 11:15:10;;;;;;;19.23;4.40;;;19.20;91.20;;;;;;5103321;28;20123;-73
2023/05/25 11:17:58;;;;;;;14.68;3.80;;;19.40;90.70;;;;;;5093141;28;20059;-73
2023/05/25 11:20:26;;;;;;;15.48;3.75;;;19.70;90.30;;;;;;5103199;28;20055;-73
2023/05/25 11:22:52;;;;;;;19.05;3.95;;;19.70;88.40;;;;;;5114673;28;20348;-73
2023/05/25 11:25:33;;;;;;;;;;;19.70;87.60;;;;;;5115171;28;20535;-74
2023/05/25 11:28:03;;;;;;;12.38;3.88;;;19.90;85.90;;;;;;5115122;28;19966;-73
2023/05/25 11:30:30;;;;;;;18.55;3.80;;;20.20;87.50;;;;;;5114002;28;20092;-73
2023/05/25 11:33:00;;;;;;;19.77;4.20;;;20.50;84.60;;;;;;5146254;27;20114;-75
2023/05/25 11:35:27;;;;;;;16.13;4.25;;;20.80;82.20;;;;;;5114273;28;20047;-76
2023/05/25 11:37:53;;;;;;;15.93;4.32;;;21.10;78.90;;;;;;5112388;28;20768;-74
2023/05/25 11:40:22;;;;;;;16.88;3.97;;;21.40;78.50;;;;;;5112576;28;20506;-74
2023/05/25 11:42:51;;;;;;;18.02;3.67;;;21.90;77.40;;;;;;5109747;28;20504;-75
2023/05/25 11:45:20;;;;;;;14.63;3.50;;;22.40;78.60;;;;;;5108498;28;20055;-75
2023/05/25 11:47:46;;;;;;;16.25;3.92;;;22.90;76.40;;;;;;5113605;28;20048;-75
2023/05/25 11:50:18;;;;;;;19.35;4.50;;;23.20;75.10;;;;;;5112491;28;20051;-75
2023/05/25 11:52:44;;;;;;;19.63;4.15;;;23.40;70.10;;;;;;5134938;27;20040;-75
2023/05/25 11:55:13;;;;;;;19.83;4.18;;;23.20;69.70;;;;;;5114048;28;20036;-75
2023/05/25 11:57:40;;;;;;;18.00;4.38;;;23.30;68.70;;;;;;5112000;28;20062;-75
2023/05/25 12:00:08;;;;;;;16.15;3.85;;;23.60;69.60;;;;;;5112977;28;20396;-75
2023/05/25 12:02:38;;;;;;;18.27;4.00;;;23.90;68.70;;;;;;5113830;28;20098;-75
2023/05/25 12:05:06;;;;;;;20.63;4.00;;;24.40;67.20;;;;;;5096066;27;20093;-75
2023/05/25 12:07:32;;;;;;;18.73;3.92;;;24.80;66.80;;;;;;5099103;28;20070;-75
2023/05/25 12:10:08;;;;;;;18.85;3.97;;;25.20;65.30;;;;;;5102148;28;20235;-75
2023/05/25 12:12:57;;;;;;;19.08;3.97;;;25.70;61.60;;;;;;5113952;28;20355;-75
2023/05/25 12:15:24;;;;;;;13.95;4.25;;;26.00;58.60;;;;;;5092467;28;20125;-75
2023/05/25 12:17:51;;;;;;;14.00;3.72;;;26.00;61.00;;;;;;5141514;27;20070;-75
2023/05/25 12:20:17;;;;;;;17.75;3.67;;;25.80;60.10;;;;;;5112808;28;20512;-75
2023/05/25 12:22:44;;;;;;;13.65;3.70;;;25.70;58.60;;;;;;5099590;28;20116;-75
2023/05/25 12:25:11;;;;;;;19.00;3.90;;;25.80;58.50;;;;;;5112690;28;20141;-75
2023/05/25 12:27:37;;;;;;;15.93;4.25;;;26.20;58.10;;;;;;5113830;28;20042;-75
2023/05/25 12:30:04;;;;;;;13.65;3.80;;;26.30;57.20;;;;;;5111536;28;20118;-75
2023/05/25 12:32:29;;;;;;;15.00;3.67;;;25.90;55.90;;;;;;5111027;28;20063;-75
2023/05/25 12:35:05;;;;;;;18.27;3.70;;;25.70;56.20;;;;;;5099597;28;20100;-75
2023/05/25 12:37:31;;;;;;;15.30;3.95;;;25.90;55.00;;;;;;5093451;28;20546;-75
2023/05/25 12:39:57;;;;;;;14.20;3.95;;;26.20;55.50;;;;;;5103772;28;20464;-76
2023/05/25 12:42:26;;;;;;;18.08;3.90;;;26.60;55.00;;;;;;5110708;28;20079;-74
2023/05/25 12:45:00;;;;;;;17.55;3.95;;;27.20;54.00;;;;;;5109851;28;20593;-76
2023/05/25 12:47:28;;;;;;;17.75;4.50;;;27.70;53.50;;;;;;5104268;28;20058;-74